Time;durP1;ratioP1;P1;durP2;ratioP2;P2;SDS_P1;SDS_P2;PMS_P1;PMS_P2;Temp;Humidity;BMP_temperature;BMP_pressure;BME280_temperature;BME280_humidity;BME280_pressure;Samples;Min_cycle;Max_cycle;Signal;HPM_P1;HPM_P2
2024/04/01 00:00:21;;;;;;;38.17;18.07;;;11.40;99.90;;;;;;4179940;28;20217;-78
2024/04/01 00:02:22;;;;;;;38.70;17.67;;;11.40;99.90;;;;;;4179549;28;20228;-78
2024/04/01 00:04:24;;;;;;;42.17;18.57;;;11.40;99.90;;;;;;4184980;28;20296;-79
2024/04/01 00:06:25;;;;;;;40.73;17.37;;;11.30;99.90;;;;;;4178932;28;20235;-79
2024/04/01 00:08:27;;;;;;;36.70;17.37;;;11.30;99.90;;;;;;4175745;28;20218;-78
2024/04/01 00:10:28;;;;;;;38.43;18.20;;;11.30;99.90;;;;;;4173642;28;20699;-78
2024/04/01 00:12:31;;;;;;;42.40;18.63;;;11.30;99.90;;;;;;4179669;28;20195;-79
2024/04/01 00:14:34;;;;;;;37.67;17.87;;;11.20;99.90;;;;;;4181324;28;20214;-78
2024/04/01 00:16:36;;;;;;;38.47;18.80;;;11.20;99.90;;;;;;4174346;28;20249;-78
2024/04/01 00:18:37;;;;;;;44.07;17.83;;;11.20;99.90;;;;;;4186771;28;20260;-78
2024/04/01 00:20:38;;;;;;;45.43;19.23;;;11.20;99.90;;;;;;4179157;28;20646;-78
2024/04/01 00:22:40;;;;;;;43.73;18.30;;;11.20;99.90;;;;;;4179714;28;20242;-79
2024/04/01 00:24:41;;;;;;;36.67;17.80;;;11.20;99.90;;;;;;4178118;28;20207;-80
2024/04/01 00:26:44;;;;;;;48.27;19.10;;;11.10;99.90;;;;;;4177808;28;20635;-78
2024/04/01 00:28:47;;;;;;;52.03;18.83;;;11.10;99.90;;;;;;4177510;28;20214;-78
2024/04/01 00:30:49;;;;;;;51.17;19.03;;;11.10;99.90;;;;;;4172997;28;20666;-80
2024/04/01 00:32:50;;;;;;;51.23;19.53;;;11.10;99.90;;;;;;4170937;28;20263;-79
2024/04/01 00:34:52;;;;;;;46.23;19.50;;;11.10;99.90;;;;;;4176421;28;20618;-79
2024/04/01 00:36:52;;;;;;;45.70;18.83;;;11.10;99.90;;;;;;4176374;28;20633;-79
2024/04/01 00:38:55;;;;;;;43.47;18.80;;;11.10;99.90;;;;;;4172089;28;20253;-83
2024/04/01 00:40:56;;;;;;;47.40;18.80;;;11.10;99.90;;;;;;4175984;28;20248;-78
2024/04/01 00:43:05;;;;;;;54.60;21.00;;;11.00;99.90;;;;;;4179840;28;20226;-78
2024/04/01 00:45:09;;;;;;;43.30;18.33;;;11.00;99.90;;;;;;4179945;28;20228;-78
2024/04/01 00:47:11;;;;;;;52.40;20.07;;;11.00;99.90;;;;;;4179459;28;20568;-79
2024/04/01 00:49:12;;;;;;;43.23;19.53;;;11.00;99.90;;;;;;4179182;28;20601;-78
2024/04/01 00:51:14;;;;;;;48.60;17.90;;;11.00;99.90;;;;;;4178619;28;20252;-77
2024/04/01 00:53:20;;;;;;;43.93;18.60;;;11.00;99.90;;;;;;4178817;28;20614;-77
2024/04/01 00:55:23;;;;;;;52.47;20.10;;;10.90;99.90;;;;;;4174879;28;20293;-78
2024/04/01 00:57:26;;;;;;;46.00;18.87;;;10.90;99.90;;;;;;4174148;28;20225;-78
2024/04/01 00:59:29;;;;;;;37.07;17.80;;;10.90;99.90;;;;;;4178173;28;20221;-77
2024/04/01 01:01:33;;;;;;;39.53;17.10;;;10.90;99.90;;;;;;4177789;28;20265;-81
2024/04/01 01:03:36;;;;;;;44.80;18.33;;;10.90;99.90;;;;;;4176442;28;20230;-78
2024/04/01 01:05:37;;;;;;;36.80;16.50;;;10.80;99.90;;;;;;4181806;28;20202;-81
2024/04/01 01:07:39;;;;;;;39.07;16.27;;;10.80;99.90;;;;;;4186254;28;20614;-79
2024/04/01 01:09:41;;;;;;;39.73;16.53;;;10.80;99.90;;;;;;4186413;28;20463;-80
2024/04/01 01:11:43;;;;;;;40.53;17.30;;;10.70;99.90;;;;;;4183099;28;20202;-79
2024/04/01 01:13:44;;;;;;;39.27;16.70;;;10.70;99.90;;;;;;4190804;28;20194;-79
2024/04/01 01:15:46;;;;;;;35.90;16.20;;;10.70;99.90;;;;;;4190730;28;20674;-79
2024/04/01 01:17:49;;;;;;;31.30;15.00;;;10.70;99.90;;;;;;4186531;28;20208;-78
2024/04/01 01:19:51;;;;;;;35.80;15.33;;;10.70;99.90;;;;;;4184232;28;20296;-78
2024/04/01 01:22:03;;;;;;;36.77;15.90;;;10.60;99.90;;;;;;4181487;28;20570;-78
2024/04/01 01:24:07;;;;;;;33.77;14.90;;;10.70;99.90;;;;;;4178818;28;20719;-78
2024/04/01 01:26:08;;;;;;;37.13;15.77;;;10.60;99.90;;;;;;4189346;28;20194;-79
2024/04/01 01:28:10;;;;;;;32.47;15.50;;;10.60;99.90;;;;;;4179259;28;20206;-80
2024/04/01 01:30:15;;;;;;;37.30;16.43;;;10.60;99.90;;;;;;4179517;28;20252;-80
2024/04/01 01:32:17;;;;;;;30.43;15.63;;;10.60;99.90;;;;;;4181265;28;20298;-78
2024/04/01 01:34:19;;;;;;;30.63;15.00;;;10.60;99.90;;;;;;4173408;28;20602;-79
2024/04/01 01:36:21;;;;;;;34.23;15.30;;;10.60;99.90;;;;;;4177139;28;20285;-81
2024/04/01 01:38:24;;;;;;;32.77;14.63;;;10.60;99.90;;;;;;4178874;28;20217;-77
2024/04/01 01:40:28;;;;;;;37.00;16.23;;;10.60;99.90;;;;;;4180233;28;20226;-79
2024/04/01 01:42:32;;;;;;;35.73;15.97;;;10.60;99.90;;;;;;4181987;28;20209;-79
2024/04/01 01:44:34;;;;;;;35.07;15.00;;;10.60;99.90;;;;;;4185284;28;20236;-80
2024/04/01 01:46:36;;;;;;;38.43;16.30;;;10.60;99.90;;;;;;4182739;28;20234;-80
2024/04/01 01:48:38;;;;;;;34.03;15.80;;;10.60;99.90;;;;;;4182915;28;20198;-80
2024/04/01 01:50:39;;;;;;;35.07;15.70;;;10.60;99.90;;;;;;4178554;28;20265;-80
2024/04/01 01:52:41;;;;;;;31.83;15.47;;;10.50;99.90;;;;;;4182859;28;20237;-79
2024/04/01 01:54:42;;;;;;;33.97;15.57;;;10.50;99.90;;;;;;4183824;28;20293;-79
2024/04/01 01:56:46;;;;;;;43.57;16.13;;;10.50;99.90;;;;;;4179946;28;20233;-79
2024/04/01 01:58:47;;;;;;;35.10;15.60;;;10.50;99.90;;;;;;4184857;28;20239;-80
2024/04/01 02:00:49;;;;;;;38.37;16.00;;;10.50;99.90;;;;;;4184842;28;20227;-80
2024/04/01 02:02:52;;;;;;;31.57;15.37;;;10.50;99.90;;;;;;4183433;28;20233;-79
2024/04/01 02:04:53;;;;;;;31.83;16.50;;;10.50;99.90;;;;;;4188391;28;20639;-80
2024/04/01 02:06:54;;;;;;;34.07;16.10;;;10.50;99.90;;;;;;4187998;28;20230;-79
2024/04/01 02:08:56;;;;;;;30.67;14.53;;;10.50;99.90;;;;;;4189735;28;20209;-80
2024/04/01 02:10:57;;;;;;;28.67;15.07;;;10.50;99.90;;;;;;4188238;28;20256;-80
2024/04/01 02:13:00;;;;;;;30.80;15.40;;;10.50;99.90;;;;;;4185868;28;20288;-80
2024/04/01 02:15:03;;;;;;;42.83;17.73;;;10.50;99.90;;;;;;4193194;28;20226;-81
2024/04/01 02:17:05;;;;;;;33.33;15.47;;;10.50;99.90;;;;;;4184694;28;20202;-80
2024/04/01 02:19:07;;;;;;;35.83;15.90;;;10.50;99.90;;;;;;4184180;28;20232;-80
2024/04/01 02:21:09;;;;;;;36.63;15.70;;;10.50;99.90;;;;;;4186116;28;20226;-80
2024/04/01 02:23:10;;;;;;;30.60;15.57;;;10.50;99.90;;;;;;4182260;28;20269;-80
2024/04/01 02:25:17;;;;;;;38.63;16.10;;;10.50;99.90;;;;;;4184450;28;20210;-79
2024/04/01 02:27:18;;;;;;;37.30;16.63;;;10.50;99.90;;;;;;4184650;28;20292;-80
2024/04/01 02:29:22;;;;;;;36.20;16.20;;;10.50;99.90;;;;;;4185306;28;20596;-79
2024/04/01 02:31:23;;;;;;;30.27;15.43;;;10.50;99.90;;;;;;4182477;28;20234;-81
2024/04/01 02:33:25;;;;;;;39.03;17.37;;;10.50;99.90;;;;;;4185226;28;20231;-80
2024/04/01 02:35:26;;;;;;;34.70;16.00;;;10.50;99.90;;;;;;4189573;28;20206;-81
2024/04/01 02:37:28;;;;;;;36.73;16.63;;;10.50;99.90;;;;;;4189573;28;20235;-79
2024/04/01 02:39:29;;;;;;;33.13;17.20;;;10.50;99.90;;;;;;4190437;28;20293;-79
2024/04/01 02:41:31;;;;;;;35.77;16.47;;;10.50;99.90;;;;;;4183716;28;20285;-79
2024/04/01 02:43:32;;;;;;;36.90;16.07;;;10.50;99.90;;;;;;4184849;28;20705;-79
2024/04/01 02:45:35;;;;;;;38.13;16.40;;;10.50;99.90;;;;;;4183849;28;20247;-79
2024/04/01 02:47:36;;;;;;;34.23;15.27;;;10.50;99.90;;;;;;4183278;28;20652;-79
2024/04/01 02:49:38;;;;;;;34.93;16.37;;;10.50;99.90;;;;;;4184513;28;20212;-79
2024/04/01 02:51:40;;;;;;;38.00;17.73;;;10.50;99.90;;;;;;4183985;28;20581;-79
2024/04/01 02:53:47;;;;;;;39.63;16.80;;;10.50;99.90;;;;;;4183466;28;20689;-78
2024/04/01 02:55:48;;;;;;;34.57;15.20;;;10.50;99.90;;;;;;4184530;28;20662;-79
2024/04/01 02:57:50;;;;;;;31.37;15.83;;;10.50;99.90;;;;;;4184081;28;20206;-78
2024/04/01 02:59:51;;;;;;;31.63;15.23;;;10.50;99.90;;;;;;4184763;28;20215;-79
2024/04/01 03:01:56;;;;;;;37.53;16.80;;;10.60;99.90;;;;;;4185944;28;20210;-80
2024/04/01 03:04:00;;;;;;;30.07;15.17;;;10.50;99.90;;;;;;4174945;28;20234;-79
2024/04/01 03:06:01;;;;;;;29.30;15.67;;;10.50;99.90;;;;;;4175448;28;20199;-79
2024/04/01 03:08:04;;;;;;;31.57;14.17;;;10.50;99.90;;;;;;4177533;28;20201;-79
2024/04/01 03:10:05;;;;;;;33.53;16.60;;;10.50;99.90;;;;;;4181163;28;20277;-78
2024/04/01 03:12:07;;;;;;;34.73;15.87;;;10.50;99.90;;;;;;4174196;28;20285;-78
2024/04/01 03:14:10;;;;;;;33.07;15.87;;;10.50;99.90;;;;;;4180291;28;20279;-79
2024/04/01 03:16:11;;;;;;;32.97;17.43;;;10.50;99.90;;;;;;4174109;28;20225;-79
2024/04/01 03:18:14;;;;;;;32.23;16.17;;;10.50;99.90;;;;;;4179077;28;20214;-78
2024/04/01 03:20:18;;;;;;;37.77;17.87;;;10.50;99.90;;;;;;4181754;28;20216;-79
2024/04/01 03:22:20;;;;;;;35.07;16.57;;;10.50;99.90;;;;;;4189162;28;20251;-79
2024/04/01 03:24:21;;;;;;;34.17;16.60;;;10.40;99.90;;;;;;4173390;28;20290;-79
2024/04/01 03:26:23;;;;;;;39.57;16.90;;;10.40;99.90;;;;;;4171190;28;20195;-80
2024/04/01 03:28:24;;;;;;;41.90;16.60;;;10.40;99.90;;;;;;4180217;28;20292;-79
2024/04/01 03:30:26;;;;;;;29.17;16.20;;;10.40;99.90;;;;;;4177319;28;20230;-79
2024/04/01 03:32:27;;;;;;;38.13;17.77;;;10.40;99.90;;;;;;4175760;28;20203;-78
2024/04/01 03:34:31;;;;;;;37.80;16.70;;;10.40;99.90;;;;;;4183825;28;20206;-79
2024/04/01 03:36:32;;;;;;;36.67;18.13;;;10.40;99.90;;;;;;4174671;28;20726;-80
2024/04/01 03:38:34;;;;;;;40.93;17.77;;;10.40;99.90;;;;;;4187963;28;20195;-78
2024/04/01 03:40:39;;;;;;;38.97;18.30;;;10.30;99.90;;;;;;4182852;28;20253;-80
2024/04/01 03:42:40;;;;;;;39.90;18.13;;;10.30;99.90;;;;;;4183142;28;20325;-80
2024/04/01 03:44:42;;;;;;;40.70;18.27;;;10.30;99.90;;;;;;4190211;28;20227;-78
2024/04/01 03:46:43;;;;;;;33.90;17.40;;;10.30;99.90;;;;;;4190222;28;20217;-78
2024/04/01 03:48:45;;;;;;;37.40;17.87;;;10.30;99.90;;;;;;4194960;28;20235;-80
2024/04/01 03:50:48;;;;;;;38.67;17.63;;;10.30;99.90;;;;;;4193627;28;20234;-79
2024/04/01 03:52:50;;;;;;;44.70;18.77;;;10.30;99.90;;;;;;4190307;28;20211;-80
2024/04/01 03:54:51;;;;;;;43.93;19.97;;;10.20;99.90;;;;;;4200324;28;20205;-80
2024/04/01 03:56:53;;;;;;;38.10;18.70;;;10.30;99.90;;;;;;4186388;28;20248;-78
2024/04/01 03:58:54;;;;;;;47.63;21.13;;;10.50;99.90;;;;;;4180458;28;20605;-78
2024/04/01 04:00:56;;;;;;;36.23;18.23;;;10.20;99.90;;;;;;4178566;28;20220;-79
2024/04/01 04:02:57;;;;;;;38.73;19.07;;;10.20;99.90;;;;;;4180412;28;20245;-78
2024/04/01 04:04:57;;;;;;;40.53;17.93;;;10.20;99.90;;;;;;4173345;28;20222;-78
2024/04/01 04:07:01;;;;;;;33.80;17.70;;;10.20;99.90;;;;;;4172953;28;20197;-79
2024/04/01 04:09:02;;;;;;;34.03;17.87;;;10.20;99.90;;;;;;4180318;28;20248;-79
2024/04/01 04:11:07;;;;;;;35.43;19.30;;;10.20;99.90;;;;;;4178210;28;20233;-79
2024/04/01 04:13:08;;;;;;;43.03;18.87;;;10.30;99.90;;;;;;4180669;28;20293;-81
2024/04/01 04:15:10;;;;;;;36.67;17.93;;;10.20;99.90;;;;;;4178327;28;20194;-81
2024/04/01 04:17:11;;;;;;;42.63;18.73;;;10.20;99.90;;;;;;4184803;28;20289;-79
2024/04/01 04:19:14;;;;;;;41.27;19.20;;;10.20;99.90;;;;;;4175823;28;20202;-80
2024/04/01 04:21:15;;;;;;;37.67;17.93;;;10.30;99.90;;;;;;4176911;28;20226;-80
2024/04/01 04:23:18;;;;;;;49.47;20.03;;;10.30;99.90;;;;;;4179043;28;20221;-79
2024/04/01 04:25:19;;;;;;;36.07;18.27;;;10.30;99.90;;;;;;4184590;28;20289;-79
2024/04/01 04:27:21;;;;;;;42.87;18.70;;;10.30;99.90;;;;;;4179537;28;20245;-79
2024/04/01 04:29:22;;;;;;;42.07;17.77;;;10.30;99.90;;;;;;4179717;28;20205;-79
2024/04/01 04:31:24;;;;;;;46.60;17.90;;;10.30;99.90;;;;;;4178238;28;20222;-79
2024/04/01 04:33:25;;;;;;;40.80;17.90;;;10.30;99.90;;;;;;4179576;28;20210;-79
2024/04/01 04:35:27;;;;;;;42.40;17.83;;;10.30;99.90;;;;;;4172471;28;20207;-79
2024/04/01 04:37:28;;;;;;;44.07;18.03;;;10.40;99.90;;;;;;4169565;28;20218;-80
2024/04/01 04:39:32;;;;;;;38.10;17.37;;;10.30;99.90;;;;;;4174635;28;20202;-79
2024/04/01 04:41:33;;;;;;;43.20;19.43;;;10.40;99.90;;;;;;4178980;28;20225;-78
2024/04/01 04:43:35;;;;;;;41.47;18.60;;;10.40;99.90;;;;;;4179449;28;20272;-79
2024/04/01 04:45:36;;;;;;;39.83;17.87;;;10.40;99.90;;;;;;4179416;28;20241;-80
2024/04/01 04:47:38;;;;;;;40.33;18.33;;;10.40;99.90;;;;;;4179181;28;20214;-79
2024/04/01 04:49:39;;;;;;;38.33;17.73;;;10.40;99.90;;;;;;4175047;28;20252;-79
2024/04/01 04:51:41;;;;;;;42.00;18.43;;;10.40;99.90;;;;;;4176880;28;20222;-78
2024/04/01 04:53:42;;;;;;;47.30;19.57;;;10.40;99.90;;;;;;4175720;28;20319;-79
2024/04/01 04:55:45;;;;;;;47.77;18.63;;;10.40;99.90;;;;;;4174506;28;20195;-79
2024/04/01 04:57:46;;;;;;;50.87;19.73;;;10.40;99.90;;;;;;4179594;28;20206;-79
2024/04/01 04:59:48;;;;;;;42.37;19.27;;;10.40;99.90;;;;;;4175734;28;20213;-78
2024/04/01 05:01:49;;;;;;;44.33;20.13;;;10.40;99.90;;;;;;4176384;28;20804;-79
2024/04/01 05:03:51;;;;;;;48.17;19.70;;;10.30;99.90;;;;;;4178376;28;20226;-78
2024/04/01 05:05:52;;;;;;;38.07;17.40;;;10.30;99.90;;;;;;4178866;28;20702;-78
2024/04/01 05:07:54;;;;;;;43.13;18.17;;;10.30;99.90;;;;;;4179165;28;20208;-78
2024/04/01 05:09:55;;;;;;;42.80;18.43;;;10.30;99.90;;;;;;4179130;28;20240;-78
2024/04/01 05:11:58;;;;;;;48.20;19.63;;;10.20;99.90;;;;;;4179147;28;20194;-79
2024/04/01 05:13:59;;;;;;;48.13;18.73;;;10.20;99.90;;;;;;4171239;28;20216;-78
2024/04/01 05:16:03;;;;;;;47.37;18.73;;;10.20;99.90;;;;;;4182593;28;20195;-80
2024/04/01 05:18:05;;;;;;;41.63;18.37;;;10.20;99.90;;;;;;4168329;28;20693;-79
2024/04/01 05:20:13;;;;;;;38.07;18.17;;;10.20;99.90;;;;;;4179544;28;20229;-78
2024/04/01 05:22:16;;;;;;;37.80;17.00;;;10.20;99.90;;;;;;4176695;28;20274;-80
2024/04/01 05:24:18;;;;;;;38.80;18.03;;;10.20;99.90;;;;;;4168772;28;20253;-79
2024/04/01 05:26:19;;;;;;;36.53;16.20;;;10.20;99.90;;;;;;4176910;28;20800;-78
2024/04/01 05:28:23;;;;;;;31.03;16.30;;;10.20;99.90;;;;;;4176876;28;20217;-79
2024/04/01 05:30:24;;;;;;;32.63;16.57;;;10.20;99.90;;;;;;4177723;28;20267;-80
2024/04/01 05:32:26;;;;;;;48.70;18.73;;;10.20;99.90;;;;;;4174604;28;20206;-78
2024/04/01 05:34:28;;;;;;;46.30;18.10;;;10.30;99.90;;;;;;4178556;28;20206;-78
2024/04/01 05:36:31;;;;;;;37.77;17.27;;;10.30;99.90;;;;;;4179067;28;20891;-78
2024/04/01 05:38:32;;;;;;;32.40;16.10;;;10.40;99.90;;;;;;4178559;28;20268;-80
2024/04/01 05:40:34;;;;;;;42.83;17.00;;;10.40;99.90;;;;;;4175571;28;20744;-78
2024/04/01 05:42:35;;;;;;;36.37;16.87;;;10.40;99.90;;;;;;4184564;28;20213;-78
2024/04/01 05:44:39;;;;;;;37.57;15.87;;;10.40;99.90;;;;;;4184438;28;20746;-78
2024/04/01 05:46:40;;;;;;;34.30;15.73;;;10.40;99.90;;;;;;4180650;28;20600;-78
2024/04/01 05:48:42;;;;;;;28.40;14.67;;;10.40;99.90;;;;;;4178815;28;20210;-79
2024/04/01 05:50:47;;;;;;;31.87;14.20;;;10.50;99.90;;;;;;4181443;28;20307;-79
2024/04/01 05:52:49;;;;;;;30.77;13.90;;;10.50;99.90;;;;;;4182153;28;20201;-78
2024/04/01 05:54:50;;;;;;;32.23;14.10;;;10.50;99.90;;;;;;4181188;28;20237;-78
2024/04/01 05:56:52;;;;;;;29.70;13.73;;;10.50;99.90;;;;;;4184019;28;20194;-79
2024/04/01 05:58:53;;;;;;;31.27;14.10;;;10.60;99.90;;;;;;4185684;28;20210;-79
2024/04/01 06:00:56;;;;;;;38.87;15.53;;;10.60;99.90;;;;;;4185695;28;20652;-78
2024/04/01 06:02:57;;;;;;;34.20;14.23;;;10.60;99.90;;;;;;4186029;28;20273;-79
2024/04/01 06:04:58;;;;;;;34.73;14.47;;;10.60;99.90;;;;;;4187724;28;20468;-78
2024/04/01 06:07:00;;;;;;;28.00;12.87;;;10.60;99.90;;;;;;4185041;28;20331;-78
2024/04/01 06:09:01;;;;;;;31.33;14.33;;;10.70;99.90;;;;;;4184949;28;20678;-79
2024/04/01 06:11:05;;;;;;;28.13;12.97;;;10.70;99.90;;;;;;4181520;28;20291;-79
2024/04/01 06:13:06;;;;;;;26.60;12.53;;;10.70;99.90;;;;;;4180338;28;20262;-81
2024/04/01 06:15:08;;;;;;;30.20;13.80;;;10.70;99.90;;;;;;4179848;28;20252;-79
2024/04/01 06:17:11;;;;;;;27.20;12.67;;;10.70;99.90;;;;;;4183985;28;20207;-79
2024/04/01 06:19:13;;;;;;;26.93;12.47;;;10.80;99.90;;;;;;4177458;28;20285;-79
2024/04/01 06:21:14;;;;;;;25.67;12.27;;;10.80;99.90;;;;;;4182523;28;20698;-78
2024/04/01 06:23:15;;;;;;;29.10;12.43;;;10.80;99.90;;;;;;4175355;28;20215;-78
2024/04/01 06:25:18;;;;;;;22.47;11.47;;;10.80;99.90;;;;;;4179527;28;20702;-78
2024/04/01 06:27:19;;;;;;;32.80;13.33;;;10.90;99.90;;;;;;4183608;28;20224;-78
2024/04/01 06:29:20;;;;;;;31.27;13.83;;;10.90;99.90;;;;;;4181660;28;20736;-82
2024/04/01 06:31:22;;;;;;;25.87;12.67;;;10.90;99.90;;;;;;4180397;28;20226;-80
2024/04/01 06:33:25;;;;;;;27.73;12.13;;;11.00;99.90;;;;;;4181130;28;20210;-78
2024/04/01 06:35:27;;;;;;;28.90;13.00;;;11.00;99.90;;;;;;4177935;28;20245;-78
2024/04/01 06:37:28;;;;;;;29.10;12.23;;;11.00;99.90;;;;;;4181714;28;20208;-81
2024/04/01 06:39:30;;;;;;;25.83;11.43;;;11.10;99.90;;;;;;4178289;28;20199;-80
2024/04/01 06:41:31;;;;;;;31.53;12.77;;;11.20;99.90;;;;;;4175722;28;20227;-79
2024/04/01 06:43:34;;;;;;;24.90;12.40;;;11.20;99.90;;;;;;4194621;28;20206;-79
2024/04/01 06:45:35;;;;;;;24.67;12.07;;;11.30;99.90;;;;;;4178324;28;20242;-78
2024/04/01 06:47:37;;;;;;;31.17;13.10;;;11.30;99.90;;;;;;4179894;28;20245;-80
2024/04/01 06:49:39;;;;;;;32.33;12.37;;;11.40;99.90;;;;;;4181548;28;20206;-80
2024/04/01 06:51:41;;;;;;;29.63;13.10;;;11.40;99.90;;;;;;4176864;28;20294;-81
2024/04/01 06:53:42;;;;;;;40.03;14.30;;;11.50;99.90;;;;;;4179702;28;20649;-81
2024/04/01 06:55:44;;;;;;;29.10;13.50;;;11.50;99.90;;;;;;4184082;28;20195;-80
2024/04/01 06:57:45;;;;;;;35.77;13.37;;;11.60;99.90;;;;;;4193349;28;20245;-80
2024/04/01 06:59:47;;;;;;;31.40;13.03;;;11.60;99.90;;;;;;4178302;28;20211;-79
2024/04/01 07:01:48;;;;;;;34.50;12.50;;;11.70;99.90;;;;;;4178209;28;20222;-80
2024/04/01 07:03:50;;;;;;;32.97;12.10;;;11.70;99.90;;;;;;4178240;28;20223;-80
2024/04/01 07:05:55;;;;;;;34.50;12.53;;;11.70;99.90;;;;;;4177750;28;20214;-81
2024/04/01 07:07:57;;;;;;;29.00;11.57;;;11.80;99.90;;;;;;4171559;28;20279;-81
2024/04/01 07:09:58;;;;;;;32.73;13.00;;;11.90;99.90;;;;;;4177427;28;20302;-80
2024/04/01 07:12:00;;;;;;;29.63;11.57;;;11.90;99.90;;;;;;4181840;28;20663;-80
2024/04/01 07:14:01;;;;;;;34.40;11.43;;;12.00;99.90;;;;;;4180492;28;20221;-81
2024/04/01 07:16:03;;;;;;;26.70;10.63;;;12.00;99.90;;;;;;4181631;28;20196;-82
2024/04/01 07:18:05;;;;;;;33.03;10.83;;;12.10;99.90;;;;;;4177211;28;20220;-80
2024/04/01 07:20:07;;;;;;;34.77;11.47;;;12.20;99.90;;;;;;4181869;28;20225;-80
2024/04/01 07:22:10;;;;;;;29.80;11.33;;;12.20;99.90;;;;;;4182662;28;20216;-80
2024/04/01 07:24:14;;;;;;;32.67;10.83;;;12.30;99.90;;;;;;4183720;28;20220;-81
2024/04/01 07:26:15;;;;;;;36.93;11.90;;;12.40;99.90;;;;;;4172134;28;20270;-80
2024/04/01 07:28:17;;;;;;;27.67;10.20;;;12.40;99.90;;;;;;4179244;28;20263;-80
2024/04/01 07:30:18;;;;;;;32.40;10.80;;;12.50;99.90;;;;;;4176147;28;20229;-80
2024/04/01 07:32:20;;;;;;;33.87;10.80;;;12.50;99.90;;;;;;4179692;28;20217;-80
2024/04/01 07:34:21;;;;;;;32.13;10.40;;;12.60;99.90;;;;;;4175242;28;20209;-81
2024/04/01 07:36:23;;;;;;;31.17;10.87;;;12.60;99.90;;;;;;4174252;28;20623;-81
2024/04/01 07:38:26;;;;;;;25.83;10.83;;;12.70;99.90;;;;;;4175754;28;20218;-81
2024/04/01 07:40:27;;;;;;;29.10;10.27;;;12.70;99.90;;;;;;4175258;28;20229;-80
2024/04/01 07:42:29;;;;;;;29.50;10.00;;;12.80;99.90;;;;;;4180188;28;20252;-81
2024/04/01 07:44:30;;;;;;;29.13;10.40;;;12.90;99.90;;;;;;4176149;28;20230;-80
2024/04/01 07:46:32;;;;;;;32.73;10.13;;;12.90;99.90;;;;;;4172538;28;20206;-81
2024/04/01 07:48:33;;;;;;;33.20;9.97;;;13.00;99.90;;;;;;4175220;28;20210;-81
2024/04/01 07:50:35;;;;;;;27.33;10.30;;;13.10;99.90;;;;;;4178595;28;20578;-80
2024/04/01 07:52:36;;;;;;;32.37;10.03;;;13.10;99.90;;;;;;4178520;28;20210;-80
2024/04/01 07:54:40;;;;;;;35.27;10.63;;;13.20;99.90;;;;;;4177743;28;20290;-80
2024/04/01 07:56:40;;;;;;;23.53;9.47;;;13.20;99.90;;;;;;4177700;28;20260;-79
2024/04/01 07:58:42;;;;;;;23.90;8.73;;;13.30;99.90;;;;;;4179704;28;20203;-82
2024/04/01 08:00:43;;;;;;;29.70;9.23;;;13.40;99.90;;;;;;4179867;28;20229;-80
2024/04/01 08:02:45;;;;;;;27.77;9.40;;;13.40;99.90;;;;;;4180480;28;20195;-80
2024/04/01 08:04:46;;;;;;;29.27;9.70;;;13.50;99.90;;;;;;4180473;28;20346;-80
2024/04/01 08:06:48;;;;;;;25.03;9.83;;;13.50;99.90;;;;;;4179675;28;20194;-80
2024/04/01 08:08:49;;;;;;;31.40;10.07;;;13.60;99.90;;;;;;4180469;28;20215;-79
2024/04/01 08:10:52;;;;;;;32.53;9.77;;;13.70;99.90;;;;;;4187208;28;20252;-81
2024/04/01 08:12:53;;;;;;;27.73;8.67;;;13.70;99.90;;;;;;4184925;28;20234;-79
2024/04/01 08:14:55;;;;;;;30.97;8.93;;;13.80;99.90;;;;;;4185956;28;20198;-79
2024/04/01 08:16:56;;;;;;;27.53;8.43;;;13.80;99.90;;;;;;4184105;28;20275;-79
2024/04/01 08:18:58;;;;;;;30.07;9.43;;;13.90;99.90;;;;;;4186462;28;20194;-79
2024/04/01 08:21:00;;;;;;;32.80;8.77;;;14.00;99.90;;;;;;4204785;28;20316;-79
2024/04/01 08:23:02;;;;;;;29.03;8.63;;;14.00;99.90;;;;;;4200887;28;20190;-80
2024/04/01 08:25:03;;;;;;;29.17;8.70;;;14.10;99.90;;;;;;4205598;28;20634;-81
2024/04/01 08:27:07;;;;;;;23.57;8.57;;;14.10;99.90;;;;;;4182858;28;20203;-81
2024/04/01 08:29:07;;;;;;;28.23;9.23;;;14.20;99.90;;;;;;4196647;28;20229;-80
2024/04/01 08:31:09;;;;;;;31.07;9.30;;;14.30;99.90;;;;;;4182576;28;20222;-80
2024/04/01 08:33:10;;;;;;;26.90;8.73;;;14.40;99.90;;;;;;4202577;28;20203;-80
2024/04/01 08:35:12;;;;;;;35.87;9.43;;;14.40;99.90;;;;;;4208174;28;20567;-80
2024/04/01 08:37:13;;;;;;;27.47;8.23;;;14.60;99.90;;;;;;4198706;28;20799;-80
2024/04/01 08:39:15;;;;;;;21.67;8.73;;;14.70;99.90;;;;;;4179342;28;20249;-79
2024/04/01 08:41:24;;;;;;;28.30;8.93;;;14.80;99.90;;;;;;4178484;28;20671;-80
2024/04/01 08:43:35;;;;;;;31.37;8.03;;;14.90;99.90;;;;;;4183571;28;20213;-81
2024/04/01 08:45:38;;;;;;;27.90;7.90;;;15.00;99.90;;;;;;4190188;28;20276;-79
2024/04/01 08:47:44;;;;;;;26.27;7.63;;;15.10;99.90;;;;;;4195982;28;20196;-79
2024/04/01 08:49:53;;;;;;;29.10;9.30;;;15.20;99.90;;;;;;4202600;28;20214;-79
2024/04/01 08:52:01;;;;;;;24.40;6.90;;;15.30;99.90;;;;;;4200152;28;20235;-78
2024/04/01 08:54:05;;;;;;;36.47;8.27;;;15.30;99.90;;;;;;4202893;28;20196;-78
2024/04/01 08:56:08;;;;;;;25.33;8.33;;;15.40;99.90;;;;;;4205127;28;20197;-77
2024/04/01 08:58:09;;;;;;;25.63;7.33;;;15.50;99.90;;;;;;4200835;28;20205;-79
2024/04/01 09:00:13;;;;;;;27.07;8.10;;;15.60;99.90;;;;;;4217471;28;20361;-78
2024/04/01 09:02:14;;;;;;;32.37;8.00;;;15.80;99.90;;;;;;4217908;28;20213;-81
2024/04/01 09:04:17;;;;;;;28.40;7.53;;;15.90;99.90;;;;;;4214902;28;20227;-80
2024/04/01 09:06:19;;;;;;;29.97;8.53;;;16.10;99.90;;;;;;4197453;28;20640;-80
2024/04/01 09:08:21;;;;;;;21.27;7.07;;;16.20;99.90;;;;;;4212726;28;20216;-79
2024/04/01 09:10:22;;;;;;;18.83;6.67;;;16.30;99.90;;;;;;4213671;28;20233;-79
2024/04/01 09:12:25;;;;;;;27.97;7.30;;;16.40;99.90;;;;;;4216812;28;20780;-80
2024/04/01 09:14:26;;;;;;;24.97;6.83;;;16.50;99.90;;;;;;4192799;28;20210;-78
2024/04/01 09:16:31;;;;;;;20.83;6.53;;;16.60;99.90;;;;;;4227802;28;20201;-79
2024/04/01 09:18:36;;;;;;;24.57;6.83;;;16.80;99.90;;;;;;4234963;28;20265;-80
2024/04/01 09:20:38;;;;;;;29.97;7.03;;;16.80;99.90;;;;;;4233393;28;20247;-80
2024/04/01 09:22:39;;;;;;;31.10;7.90;;;16.90;99.90;;;;;;4233467;28;20201;-80
2024/04/01 09:24:41;;;;;;;30.87;7.47;;;16.90;99.90;;;;;;4231315;28;20216;-81
2024/04/01 09:26:43;;;;;;;27.57;6.83;;;16.90;99.90;;;;;;4215211;28;20228;-80
2024/04/01 09:28:46;;;;;;;28.93;7.23;;;16.90;99.90;;;;;;4233808;28;20192;-80
2024/04/01 09:30:49;;;;;;;25.60;7.07;;;17.00;99.90;;;;;;4232745;28;20284;-79
2024/04/01 09:32:53;;;;;;;27.17;7.23;;;17.10;99.90;;;;;;4233341;28;20193;-78
2024/04/01 09:34:57;;;;;;;26.10;7.43;;;17.10;99.90;;;;;;4214220;28;20201;-81
2024/04/01 09:36:59;;;;;;;33.53;7.87;;;17.20;99.90;;;;;;4233611;28;20196;-79
2024/04/01 09:39:00;;;;;;;26.23;7.13;;;17.20;99.90;;;;;;4233446;28;20205;-80
2024/04/01 09:41:02;;;;;;;20.47;5.97;;;17.30;99.90;;;;;;4214383;28;20289;-78
2024/04/01 09:43:03;;;;;;;32.93;6.80;;;17.40;99.90;;;;;;4232340;28;20207;-80
2024/04/01 09:45:08;;;;;;;26.00;7.10;;;17.50;99.90;;;;;;4205125;28;20267;-81
2024/04/01 09:47:09;;;;;;;21.83;6.57;;;17.60;99.90;;;;;;4201857;28;20217;-80
2024/04/01 09:49:15;;;;;;;25.10;6.33;;;17.70;99.90;;;;;;4220406;28;20215;-79
2024/04/01 09:51:19;;;;;;;28.30;5.93;;;17.70;99.90;;;;;;4200040;28;20237;-81
2024/04/01 09:53:21;;;;;;;26.00;6.37;;;17.80;99.90;;;;;;4204289;28;20247;-80
2024/04/01 09:55:27;;;;;;;22.30;6.60;;;17.90;99.90;;;;;;4218709;28;20197;-79
2024/04/01 09:57:55;;;;;;;25.90;6.77;;;18.00;99.90;;;;;;4221860;28;20196;-80
2024/04/01 10:00:17;;;;;;;19.57;6.30;;;18.00;99.90;;;;;;4204709;28;20209;-80
2024/04/01 10:02:49;;;;;;;23.33;6.33;;;18.10;99.90;;;;;;4204407;28;20201;-78
2024/04/01 10:05:12;;;;;;;22.53;5.77;;;18.10;99.90;;;;;;4222494;28;20243;-79
2024/04/01 10:07:42;;;;;;;29.87;6.37;;;18.20;99.90;;;;;;4218974;28;20209;-77
2024/04/01 10:10:08;;;;;;;29.00;6.70;;;18.20;99.90;;;;;;4217985;28;20664;-77
2024/04/01 10:12:35;;;;;;;22.33;5.67;;;18.10;99.90;;;;;;4195809;28;20210;-78
2024/04/01 10:15:02;;;;;;;24.07;6.20;;;17.90;99.90;;;;;;4221394;28;20586;-78
2024/04/01 10:17:22;;;;;;;20.67;4.83;;;17.80;99.90;;;;;;4216330;28;20224;-78
2024/04/01 10:20:00;;;;;;;20.50;5.63;;;17.70;99.90;;;;;;4219019;28;20730;-80
2024/04/01 10:22:41;;;;;;;20.47;5.93;;;17.70;99.90;;;;;;4220802;28;20197;-77
2024/04/01 10:25:14;;;;;;;20.60;5.23;;;17.70;99.90;;;;;;4195385;28;20216;-80